createdAt,value
2019-04-27T00:02:13.473Z,6.43
2019-04-27T00:05:03.819Z,6.60
2019-04-27T00:07:43.827Z,6.60
2019-04-27T00:10:20.451Z,6.70
2019-04-27T00:12:57.317Z,7.27
2019-04-27T00:15:36.895Z,7.33
2019-04-27T00:18:18.766Z,7.37
2019-04-27T00:21:09.081Z,7.13
2019-04-27T00:23:42.902Z,7.53
2019-04-27T00:26:14.254Z,8.97
2019-04-27T00:28:45.561Z,9.73
2019-04-27T00:31:16.931Z,9.27
2019-04-27T00:33:48.273Z,7.93
2019-04-27T00:36:29.502Z,7.93
2019-04-27T00:39:27.996Z,7.67
2019-04-27T00:41:59.342Z,7.73
2019-04-27T00:44:31.569Z,7.53
2019-04-27T00:47:04.662Z,9.77
2019-04-27T00:49:36.287Z,7.63
2019-04-27T00:52:07.604Z,7.83
2019-04-27T00:54:39.041Z,8.47
2019-04-27T00:57:33.212Z,7.40
2019-04-27T01:00:26.076Z,9.37
2019-04-27T01:03:00.431Z,8.30
2019-04-27T01:05:31.755Z,9.63
2019-04-27T01:08:03.797Z,8.83
2019-04-27T01:10:35.322Z,8.03
2019-04-27T01:13:06.878Z,9.17
2019-04-27T01:15:38.228Z,8.50
2019-04-27T01:18:15.007Z,7.67
2019-04-27T01:20:43.704Z,8.47
2019-04-27T01:23:15.224Z,8.00
2019-04-27T01:26:06.473Z,9.20
2019-04-27T01:28:44.415Z,8.37
2019-04-27T01:31:15.887Z,8.60
2019-04-27T01:33:48.799Z,8.57
2019-04-27T01:36:20.171Z,8.90
2019-04-27T01:38:51.483Z,9.13
2019-04-27T01:41:22.837Z,9.87
2019-04-27T01:43:54.142Z,11.07
2019-04-27T01:46:25.512Z,10.57
2019-04-27T01:48:56.893Z,9.43
2019-04-27T01:51:29.466Z,11.60
2019-04-27T01:54:00.811Z,8.33
2019-04-27T01:56:32.171Z,9.10
2019-04-27T01:59:03.561Z,8.77
2019-04-27T02:01:59.949Z,9.40
2019-04-27T02:04:50.342Z,8.70
2019-04-27T02:07:21.730Z,10.80
2019-04-27T02:09:53.140Z,9.90
2019-04-27T02:12:24.498Z,9.00
2019-04-27T02:14:55.808Z,8.80
2019-04-27T02:17:28.799Z,8.20
2019-04-27T02:20:00.174Z,8.63
2019-04-27T02:22:31.629Z,9.00
2019-04-27T02:25:03.146Z,9.40
2019-04-27T02:27:36.074Z,8.60
2019-04-27T02:30:25.277Z,10.20
2019-04-27T02:33:13.050Z,9.33
2019-04-27T02:35:44.358Z,9.07
2019-04-27T02:38:15.652Z,9.10
2019-04-27T02:41:01.093Z,8.07
2019-04-27T02:43:51.357Z,9.23
2019-04-27T02:46:22.761Z,9.03
2019-04-27T02:49:00.203Z,9.20
2019-04-27T02:51:45.030Z,8.47
2019-04-27T02:54:16.374Z,11.20
2019-04-27T02:56:50.070Z,9.27
2019-04-27T02:59:20.697Z,8.37
2019-04-27T03:02:01.074Z,8.37
2019-04-27T03:04:32.387Z,9.07
2019-04-27T03:07:03.749Z,9.07
2019-04-27T03:09:35.073Z,8.60
2019-04-27T03:12:06.488Z,8.93
2019-04-27T03:14:54.389Z,8.83
2019-04-27T03:17:49.447Z,8.93
2019-04-27T03:20:30.013Z,10.90
2019-04-27T03:23:03.969Z,8.63
2019-04-27T03:25:43.807Z,8.50
2019-04-27T03:28:16.217Z,11.97
2019-04-27T03:30:51.628Z,8.27
2019-04-27T03:33:22.319Z,10.40
2019-04-27T03:35:54.117Z,10.40
2019-04-27T03:38:25.610Z,10.47
2019-04-27T03:40:56.926Z,9.07
2019-04-27T03:43:30.249Z,8.53
2019-04-27T03:46:01.303Z,9.73
2019-04-27T03:48:32.651Z,9.10
2019-04-27T03:51:29.927Z,11.67
2019-04-27T03:54:22.191Z,10.17
2019-04-27T03:56:59.463Z,9.47
2019-04-27T03:59:33.820Z,10.73
2019-04-27T04:02:05.179Z,11.00
2019-04-27T04:04:36.471Z,11.33
2019-04-27T04:07:19.470Z,10.70
2019-04-27T04:09:50.489Z,9.27
2019-04-27T04:12:33.070Z,9.97
2019-04-27T04:15:05.247Z,11.10
2019-04-27T04:17:36.517Z,9.33
2019-04-27T04:20:10.232Z,10.70
2019-04-27T04:22:41.667Z,12.70
2019-04-27T04:25:13.275Z,9.13
2019-04-27T04:27:44.716Z,11.10
2019-04-27T04:30:16.536Z,11.10
2019-04-27T04:32:51.641Z,10.27
2019-04-27T04:35:24.359Z,10.10
2019-04-27T04:37:55.729Z,9.93
2019-04-27T04:40:35.322Z,8.63
2019-04-27T04:43:15.388Z,10.17
2019-04-27T04:45:59.606Z,10.30
2019-04-27T04:48:31.003Z,8.67
2019-04-27T04:51:02.355Z,8.17
2019-04-27T04:53:33.704Z,9.93
2019-04-27T04:56:05.026Z,8.30
2019-04-27T04:58:36.358Z,8.40
2019-04-27T05:01:09.730Z,8.53
2019-04-27T05:03:40.803Z,9.03
2019-04-27T05:06:12.164Z,10.17
2019-04-27T05:08:43.503Z,10.10
2019-04-27T05:11:14.824Z,7.93
2019-04-27T05:13:46.156Z,9.50
2019-04-27T05:16:18.933Z,8.13
2019-04-27T05:18:50.332Z,8.17
2019-04-27T05:21:32.991Z,7.73
2019-04-27T05:24:05.275Z,9.10
2019-04-27T05:26:36.603Z,8.17
2019-04-27T05:29:09.114Z,7.80
2019-04-27T05:31:40.540Z,8.67
2019-04-27T05:34:11.897Z,7.80
2019-04-27T05:36:48.896Z,9.27
2019-04-27T05:39:18.157Z,7.90
2019-04-27T05:41:49.957Z,8.83
2019-04-27T05:44:35.183Z,8.47
2019-04-27T05:47:20.842Z,7.27
2019-04-27T05:49:58.809Z,8.53
2019-04-27T05:52:33.274Z,9.07
2019-04-27T05:55:04.815Z,7.43
2019-04-27T05:57:36.168Z,7.47
2019-04-27T06:00:09.341Z,7.10
2019-04-27T06:02:40.673Z,9.40
2019-04-27T06:05:12.212Z,8.07
2019-04-27T06:07:43.496Z,7.37
2019-04-27T06:10:15.458Z,6.73
2019-04-27T06:12:48.891Z,9.37
2019-04-27T06:15:20.284Z,9.43
2019-04-27T06:17:51.571Z,7.00
2019-04-27T06:20:22.932Z,6.60
2019-04-27T06:22:54.306Z,6.57
2019-04-27T06:25:25.651Z,7.73
2019-04-27T06:27:57.000Z,6.83
2019-04-27T06:30:29.241Z,7.97
2019-04-27T06:33:00.672Z,9.07
2019-04-27T06:35:32.154Z,7.00
2019-04-27T06:38:03.443Z,7.70
2019-04-27T06:40:35.507Z,7.37
2019-04-27T06:43:08.487Z,10.20
2019-04-27T06:45:40.075Z,7.97
2019-04-27T06:48:11.395Z,6.90
2019-04-27T06:50:42.839Z,7.37
2019-04-27T06:53:14.194Z,6.37
2019-04-27T06:55:45.523Z,7.53
2019-04-27T06:58:16.873Z,7.30
2019-04-27T07:00:49.685Z,7.33
2019-04-27T07:03:21.124Z,6.17
2019-04-27T07:05:52.507Z,7.30
2019-04-27T07:08:23.943Z,7.00
2019-04-27T07:10:55.352Z,5.90
2019-04-27T07:13:26.714Z,7.07
2019-04-27T07:15:59.700Z,8.03
2019-04-27T07:18:31.088Z,5.77
2019-04-27T07:21:02.474Z,6.60
2019-04-27T07:23:35.445Z,6.20
2019-04-27T07:26:06.842Z,5.90
2019-04-27T07:28:40.864Z,6.23
2019-04-27T07:31:12.484Z,5.77
2019-04-27T07:33:43.933Z,6.30
2019-04-27T07:36:15.343Z,6.80
2019-04-27T07:38:48.461Z,6.73
2019-04-27T07:41:20.177Z,6.63
2019-04-27T07:43:58.606Z,5.73
2019-04-27T07:46:31.774Z,6.83
2019-04-27T07:49:03.385Z,7.10
2019-04-27T07:51:34.853Z,8.10
2019-04-27T07:54:06.219Z,6.97
2019-04-27T07:56:38.954Z,7.03
2019-04-27T07:59:10.432Z,6.30
2019-04-27T08:01:41.807Z,8.53
2019-04-27T08:04:13.199Z,6.93
2019-04-27T08:06:44.638Z,7.97
2019-04-27T08:09:16.040Z,5.67
2019-04-27T08:11:48.844Z,5.40
2019-04-27T08:14:20.411Z,5.67
2019-04-27T08:16:51.897Z,4.43
2019-04-27T08:19:23.266Z,5.63
2019-04-27T08:21:54.681Z,5.83
2019-04-27T08:24:26.083Z,5.40
2019-04-27T08:27:02.700Z,4.53
2019-04-27T08:30:00.160Z,5.13
2019-04-27T08:32:39.084Z,5.50
2019-04-27T08:35:11.580Z,5.40
2019-04-27T08:37:43.111Z,6.03
2019-04-27T08:43:55.967Z,5.77
2019-04-27T08:46:28.651Z,4.93
2019-04-27T08:49:00.121Z,6.13
2019-04-27T08:51:31.517Z,4.93
2019-04-27T08:54:02.984Z,6.97
2019-04-27T08:56:34.474Z,4.80
2019-04-27T08:59:05.985Z,4.33
2019-04-27T09:01:37.442Z,5.77
2019-04-27T09:04:09.249Z,5.23
2019-04-27T09:06:43.761Z,5.43
2019-04-27T09:09:24.981Z,5.10
2019-04-27T09:12:14.564Z,5.10
2019-04-27T09:14:59.111Z,6.93
2019-04-27T09:17:34.385Z,3.50
2019-04-27T09:20:14.391Z,3.83
2019-04-27T09:22:45.830Z,3.80
2019-04-27T09:25:19.205Z,2.73
2019-04-27T09:27:50.764Z,1.90
2019-04-27T09:30:26.796Z,3.20
2019-04-27T09:32:58.763Z,3.63
2019-04-27T09:35:30.352Z,2.30
2019-04-27T09:38:01.814Z,1.20
2019-04-27T09:40:33.302Z,2.10
2019-04-27T09:43:04.885Z,3.07
2019-04-27T09:45:37.191Z,1.83
2019-04-27T09:48:08.897Z,2.57
2019-04-27T09:50:40.462Z,2.57
2019-04-27T09:53:12.101Z,1.67
2019-04-27T09:55:43.563Z,2.87
2019-04-27T09:58:15.981Z,1.70
2019-04-27T10:00:49.478Z,2.70
2019-04-27T10:03:23.631Z,1.40
2019-04-27T10:05:56.886Z,2.63
2019-04-27T10:08:28.726Z,1.93
2019-04-27T10:11:00.331Z,1.60
2019-04-27T10:13:31.892Z,3.13
2019-04-27T10:16:06.350Z,1.20
2019-04-27T10:18:37.837Z,3.63
2019-04-27T10:21:09.375Z,0.50
2019-04-27T10:23:40.846Z,2.07
2019-04-27T10:26:12.376Z,2.83
2019-04-27T10:28:43.852Z,1.97
2019-04-27T10:31:15.281Z,1.57
2019-04-27T10:33:46.651Z,1.00
2019-04-27T10:36:38.127Z,1.40
2019-04-27T10:39:14.291Z,0.97
2019-04-27T10:41:46.317Z,1.30
2019-04-27T10:44:17.774Z,0.70
2019-04-27T10:46:52.419Z,1.20
2019-04-27T10:49:23.875Z,2.17
2019-04-27T10:51:55.822Z,1.97
2019-04-27T10:54:28.198Z,2.40
2019-04-27T10:56:59.626Z,0.40
2019-04-27T10:59:31.057Z,0.40
2019-04-27T11:02:02.440Z,0.33
2019-04-27T11:04:56.603Z,1.13
2019-04-27T11:07:36.183Z,0.40
2019-04-27T11:10:08.991Z,0.63
2019-04-27T11:12:40.400Z,0.50
2019-04-27T11:15:12.206Z,0.73
2019-04-27T11:17:43.628Z,0.40
2019-04-27T11:20:15.066Z,0.27
2019-04-27T11:22:46.588Z,0.27
2019-04-27T11:25:18.107Z,0.40
2019-04-27T11:27:49.516Z,0.57
2019-04-27T11:30:21.272Z,1.10
2019-04-27T11:32:54.503Z,1.03
2019-04-27T11:35:42.505Z,0.73
2019-04-27T11:38:13.928Z,0.80
2019-04-27T11:40:46.637Z,1.60
2019-04-27T11:43:18.135Z,0.97
2019-04-27T11:45:49.589Z,1.50
2019-04-27T11:48:20.978Z,1.50
2019-04-27T11:50:52.512Z,1.80
2019-04-27T11:53:23.926Z,2.10
2019-04-27T11:55:55.329Z,10.10
2019-04-27T11:58:26.780Z,4.13
2019-04-27T12:00:58.317Z,2.93
2019-04-27T12:03:29.760Z,1.30
2019-04-27T12:06:01.286Z,2.90
2019-04-27T12:08:32.711Z,2.90
2019-04-27T12:11:05.926Z,2.10
2019-04-27T12:13:37.455Z,1.27
2019-04-27T12:16:08.904Z,2.83
2019-04-27T12:18:40.341Z,2.40
2019-04-27T12:21:11.922Z,1.67
2019-04-27T12:23:47.070Z,3.07
2019-04-27T12:26:33.255Z,3.20
2019-04-27T12:29:06.266Z,3.90
2019-04-27T12:31:42.875Z,3.53
2019-04-27T12:34:13.044Z,4.37
2019-04-27T12:36:45.923Z,3.43
2019-04-27T12:39:17.352Z,3.30
2019-04-27T12:41:48.863Z,3.70
2019-04-27T12:44:20.241Z,3.60
2019-04-27T12:46:51.689Z,4.17
2019-04-27T12:49:23.160Z,4.97
2019-04-27T12:51:55.834Z,6.67
2019-04-27T12:54:38.837Z,5.30
2019-04-27T12:57:38.354Z,5.00
2019-04-27T13:00:38.327Z,3.93
2019-04-27T13:03:09.870Z,2.00
2019-04-27T13:05:41.259Z,3.37
2019-04-27T13:08:12.751Z,2.00
2019-04-27T13:10:44.165Z,4.97
2019-04-27T13:13:16.430Z,2.77
2019-04-27T13:15:48.053Z,3.73
2019-04-27T13:18:19.465Z,5.13
2019-04-27T13:20:50.857Z,2.70
2019-04-27T13:23:22.279Z,2.27
2019-04-27T13:25:53.711Z,2.47
2019-04-27T13:28:25.681Z,2.13
2019-04-27T13:30:57.258Z,2.73
2019-04-27T13:33:28.756Z,2.27
2019-04-27T13:36:00.261Z,2.43
2019-04-27T13:38:31.744Z,2.40
2019-04-27T13:41:10.041Z,2.63
2019-04-27T13:43:42.264Z,3.10
2019-04-27T13:46:26.003Z,3.80
2019-04-27T13:49:17.572Z,1.90
2019-04-27T13:52:01.416Z,2.60
2019-04-27T13:54:32.825Z,1.63
2019-04-27T13:57:04.329Z,1.57
2019-04-27T13:59:35.744Z,1.20
2019-04-27T14:02:07.494Z,1.80
2019-04-27T14:04:38.935Z,1.97
2019-04-27T14:07:10.497Z,1.23
2019-04-27T14:09:42.137Z,2.47
2019-04-27T14:12:23.643Z,2.03
2019-04-27T14:14:56.694Z,2.23
2019-04-27T14:17:29.356Z,1.63
2019-04-27T14:20:00.944Z,2.13
2019-04-27T14:22:32.588Z,1.30
2019-04-27T14:25:04.081Z,1.40
2019-04-27T14:27:40.835Z,1.27
2019-04-27T14:30:15.436Z,1.37
2019-04-27T14:32:46.909Z,0.83
2019-04-27T14:35:19.380Z,2.93
2019-04-27T14:37:50.962Z,1.63
2019-04-27T14:40:22.460Z,0.73
2019-04-27T14:42:54.137Z,1.20
2019-04-27T14:45:25.962Z,1.67
2019-04-27T14:47:58.216Z,0.57
2019-04-27T14:50:30.579Z,0.93
2019-04-27T14:53:04.730Z,1.50
2019-04-27T14:55:36.057Z,1.83
2019-04-27T14:58:08.733Z,0.60
2019-04-27T15:00:40.211Z,0.70
2019-04-27T15:03:11.583Z,0.70
2019-04-27T15:05:42.940Z,1.30
2019-04-27T15:08:14.310Z,1.17
2019-04-27T15:10:46.411Z,0.50
2019-04-27T15:13:18.854Z,0.73
2019-04-27T15:15:50.273Z,2.00
2019-04-27T15:18:23.312Z,1.50
2019-04-27T15:20:54.689Z,0.50
2019-04-27T15:23:26.611Z,1.17
2019-04-27T15:26:00.397Z,0.80
2019-04-27T15:28:33.468Z,1.90
2019-04-27T15:31:27.066Z,0.57
2019-04-27T15:34:11.078Z,0.67
2019-04-27T15:36:52.956Z,0.50
2019-04-27T15:39:39.865Z,0.70
2019-04-27T15:42:13.473Z,1.70
2019-04-27T15:44:44.936Z,0.97
2019-04-27T15:47:17.790Z,1.53
2019-04-27T15:49:51.095Z,1.70
2019-04-27T15:52:25.621Z,1.43
2019-04-27T15:54:55.432Z,6.63
2019-04-27T15:57:27.935Z,5.60
2019-04-27T15:59:59.303Z,1.63
2019-04-27T16:02:30.740Z,3.10
2019-04-27T16:05:02.074Z,2.40
2019-04-27T16:07:33.401Z,3.60
2019-04-27T16:10:05.090Z,1.03
2019-04-27T16:12:39.067Z,3.63
2019-04-27T16:15:13.518Z,1.53
2019-04-27T16:17:51.021Z,1.00
2019-04-27T16:20:22.531Z,2.83
2019-04-27T16:22:56.661Z,1.00
2019-04-27T16:25:28.262Z,1.37
2019-04-27T16:27:59.561Z,1.57
2019-04-27T16:30:30.994Z,1.37
2019-04-27T16:33:03.298Z,1.03
2019-04-27T16:35:34.788Z,1.00
2019-04-27T16:38:34.677Z,2.13
2019-04-27T16:41:04.537Z,1.23
2019-04-27T16:43:35.943Z,2.37
2019-04-27T16:46:08.913Z,2.67
2019-04-27T16:48:40.326Z,1.27
2019-04-27T16:51:12.234Z,2.40
2019-04-27T16:53:43.535Z,1.87
2019-04-27T16:56:18.283Z,2.57
2019-04-27T16:58:55.929Z,2.13
2019-04-27T17:01:25.791Z,0.73
2019-04-27T17:03:58.881Z,2.10
2019-04-27T17:06:30.345Z,3.60
2019-04-27T17:09:06.818Z,5.60
2019-04-27T17:11:38.289Z,1.00
2019-04-27T17:14:34.801Z,0.60
2019-04-27T17:17:23.167Z,0.70
2019-04-27T17:19:58.371Z,3.50
2019-04-27T17:22:29.773Z,0.63
2019-04-27T17:25:01.199Z,0.60
2019-04-27T17:27:48.264Z,3.33
2019-04-27T17:30:19.835Z,2.87
2019-04-27T17:33:13.756Z,3.03
2019-04-27T17:35:42.763Z,1.93
2019-04-27T17:38:15.801Z,3.73
2019-04-27T17:40:48.435Z,2.73
2019-04-27T17:43:20.275Z,2.97
2019-04-27T17:45:51.633Z,2.07
2019-04-27T17:48:22.983Z,2.93
2019-04-27T17:50:55.951Z,2.10
2019-04-27T17:53:29.837Z,2.43
2019-04-27T17:56:05.581Z,1.43
2019-04-27T17:58:35.355Z,3.23
2019-04-27T18:01:08.531Z,1.67
2019-04-27T18:03:39.877Z,6.03
2019-04-27T18:06:11.250Z,2.03
2019-04-27T18:08:42.624Z,4.57
2019-04-27T18:11:13.977Z,2.13
2019-04-27T18:13:45.416Z,4.07
2019-04-27T18:16:16.781Z,4.10
2019-04-27T18:18:59.454Z,2.10
2019-04-27T18:21:33.804Z,2.27
2019-04-27T18:24:10.693Z,2.57
2019-04-27T18:26:51.978Z,2.80
2019-04-27T18:29:22.756Z,3.80
2019-04-27T18:31:54.842Z,3.20
2019-04-27T18:34:26.206Z,4.23
2019-04-27T18:36:57.517Z,3.40
2019-04-27T18:39:28.866Z,2.77
2019-04-27T18:42:00.327Z,1.23
2019-04-27T18:44:31.981Z,4.50
2019-04-27T18:47:03.471Z,2.97
2019-04-27T18:50:08.000Z,6.20
2019-04-27T18:52:50.337Z,8.00
2019-04-27T18:55:21.683Z,3.57
2019-04-27T18:57:54.492Z,2.53
2019-04-27T19:00:27.661Z,2.83
2019-04-27T19:03:00.181Z,4.53
2019-04-27T19:05:39.656Z,6.53
2019-04-27T19:08:04.598Z,5.07
2019-04-27T19:10:35.940Z,4.33
2019-04-27T19:13:08.773Z,2.67
2019-04-27T19:15:41.257Z,7.20
2019-04-27T19:18:12.630Z,5.20
2019-04-27T19:20:45.139Z,4.87
2019-04-27T19:23:16.457Z,3.20
2019-04-27T19:26:09.911Z,5.87
2019-04-27T19:29:09.400Z,4.87
2019-04-27T19:31:48.203Z,6.47
2019-04-27T19:34:20.599Z,6.27
2019-04-27T19:36:52.879Z,6.63
2019-04-27T19:39:24.260Z,7.77
2019-04-27T19:42:00.248Z,8.20
2019-04-27T19:44:29.337Z,6.20
2019-04-27T19:47:00.710Z,8.00
2019-04-27T19:49:32.062Z,5.70
2019-04-27T19:52:03.432Z,6.77
2019-04-27T19:54:34.766Z,6.10
2019-04-27T19:57:06.153Z,7.00
2019-04-27T19:59:45.855Z,3.73
2019-04-27T20:02:20.256Z,8.37
2019-04-27T20:04:58.581Z,7.33
2019-04-27T20:07:29.941Z,4.70
2019-04-27T20:10:02.445Z,4.90
2019-04-27T20:12:34.041Z,3.83
2019-04-27T20:15:05.907Z,7.30
2019-04-27T20:17:37.253Z,5.77
2019-04-27T20:20:08.699Z,10.57
2019-04-27T20:22:40.079Z,8.97
2019-04-27T20:25:11.566Z,8.77
2019-04-27T20:27:49.316Z,7.33
2019-04-27T20:30:16.197Z,7.80
2019-04-27T20:32:47.527Z,8.17
2019-04-27T20:35:18.879Z,5.43
2019-04-27T20:37:51.846Z,6.10
2019-04-27T20:40:23.318Z,5.40
2019-04-27T20:42:54.671Z,6.00
2019-04-27T20:45:27.094Z,6.03
2019-04-27T20:47:58.408Z,9.23
2019-04-27T20:50:30.891Z,7.90
2019-04-27T20:53:06.481Z,7.53
2019-04-27T20:55:37.856Z,7.80
2019-04-27T20:58:10.930Z,11.87
2019-04-27T21:00:42.288Z,9.77
2019-04-27T21:03:22.741Z,9.30
2019-04-27T21:06:11.803Z,8.30
2019-04-27T21:08:43.331Z,9.57
2019-04-27T21:11:14.692Z,7.03
2019-04-27T21:13:46.970Z,8.97
2019-04-27T21:16:18.360Z,5.73
2019-04-27T21:18:51.377Z,4.23
2019-04-27T21:21:22.731Z,4.87
2019-04-27T21:23:54.188Z,5.83
2019-04-27T21:26:25.516Z,5.23
2019-04-27T21:28:56.841Z,6.63
2019-04-27T21:31:31.674Z,7.03
2019-04-27T21:34:03.009Z,2.63
2019-04-27T21:36:34.375Z,7.13
2019-04-27T21:39:07.477Z,5.30
2019-04-27T21:41:41.342Z,5.00
2019-04-27T21:44:12.682Z,3.63
2019-04-27T21:46:44.017Z,5.80
2019-04-27T21:49:15.357Z,4.23
2019-04-27T21:52:05.650Z,4.27
2019-04-27T21:54:37.931Z,5.33
2019-04-27T21:57:12.459Z,7.20
2019-04-27T21:59:42.306Z,4.00
2019-04-27T22:02:13.831Z,5.53
2019-04-27T22:04:45.156Z,5.43
2019-04-27T22:07:16.525Z,3.47
2019-04-27T22:09:47.867Z,4.77
2019-04-27T22:12:21.233Z,2.77
2019-04-27T22:14:53.102Z,1.67
2019-04-27T22:17:24.569Z,2.07
2019-04-27T22:19:57.002Z,4.67
2019-04-27T22:22:35.529Z,7.50
2019-04-27T22:25:11.494Z,5.63
2019-04-27T22:27:42.630Z,6.10
2019-04-27T22:30:14.049Z,5.33
2019-04-27T22:32:45.398Z,2.10
2019-04-27T22:35:16.706Z,4.70
2019-04-27T22:37:49.051Z,2.30
2019-04-27T22:40:48.210Z,3.90
2019-04-27T22:43:56.496Z,2.87
2019-04-27T22:46:28.658Z,4.93
2019-04-27T22:49:01.731Z,2.80
2019-04-27T22:51:33.144Z,4.03
2019-04-27T22:54:04.507Z,4.20
2019-04-27T22:56:36.276Z,2.93
2019-04-27T22:59:41.725Z,3.60
2019-04-27T23:02:31.729Z,2.43
2019-04-27T23:05:04.869Z,2.63
2019-04-27T23:07:36.322Z,1.57
2019-04-27T23:10:08.360Z,2.63
2019-04-27T23:12:41.822Z,2.93
2019-04-27T23:15:17.002Z,3.37
2019-04-27T23:17:52.518Z,1.80
2019-04-27T23:20:23.952Z,6.53
2019-04-27T23:22:55.342Z,2.10
2019-04-27T23:25:26.662Z,5.33
2019-04-27T23:27:58.048Z,1.73
2019-04-27T23:30:36.800Z,5.03
2019-04-27T23:33:08.174Z,2.93
2019-04-27T23:35:41.386Z,3.87
2019-04-27T23:38:17.205Z,3.03
2019-04-27T23:40:45.877Z,3.13
2019-04-27T23:43:17.310Z,1.73
2019-04-27T23:45:48.634Z,2.97
2019-04-27T23:48:19.975Z,2.40
2019-04-27T23:50:53.369Z,4.80
2019-04-27T23:53:28.216Z,3.57
2019-04-27T23:55:59.562Z,3.33
2019-04-27T23:58:30.958Z,5.80
